createdAt,value
2022-12-09T00:00:26.734Z,34.65
2022-12-09T00:02:53.574Z,33.15
2022-12-09T00:05:22.199Z,31.92
2022-12-09T00:07:53.933Z,32.95
2022-12-09T00:10:23.355Z,30.88
2022-12-09T00:12:54.117Z,34.33
2022-12-09T00:15:20.891Z,31.35
2022-12-09T00:17:47.584Z,32.10
2022-12-09T00:20:16.979Z,32.97
2022-12-09T00:22:45.931Z,31.50
2022-12-09T00:25:12.482Z,32.15
2022-12-09T00:27:39.060Z,32.42
2022-12-09T00:30:06.654Z,30.13
2022-12-09T00:32:36.443Z,32.17
2022-12-09T00:35:04.469Z,31.08
2022-12-09T00:37:31.072Z,29.73
2022-12-09T00:39:57.763Z,30.30
2022-12-09T00:42:24.284Z,30.15
2022-12-09T00:44:50.831Z,28.67
2022-12-09T00:47:17.481Z,26.00
2022-12-09T00:49:44.285Z,25.70
2022-12-09T00:52:10.783Z,29.17
2022-12-09T00:54:37.600Z,24.00
2022-12-09T00:57:04.168Z,30.00
2022-12-09T00:59:30.830Z,23.05
2022-12-09T01:01:57.758Z,29.23
2022-12-09T01:04:25.649Z,26.27
2022-12-09T01:06:52.717Z,26.45
2022-12-09T01:09:19.694Z,25.52
2022-12-09T01:11:46.469Z,22.25
2022-12-09T01:14:16.872Z,26.48
2022-12-09T01:16:43.483Z,20.70
2022-12-09T01:19:13.311Z,22.05
2022-12-09T01:21:40.265Z,23.25
2022-12-09T01:24:11.033Z,22.35
2022-12-09T01:26:38.594Z,21.55
2022-12-09T01:29:05.693Z,21.33
2022-12-09T01:31:32.407Z,21.55
2022-12-09T01:33:59.376Z,25.33
2022-12-09T01:36:29.234Z,22.05
2022-12-09T01:39:02.900Z,21.75
2022-12-09T01:41:29.571Z,23.50
2022-12-09T01:44:14.886Z,20.73
2022-12-09T01:46:42.251Z,25.83
2022-12-09T01:49:13.747Z,26.35
2022-12-09T01:51:45.682Z,22.00
2022-12-09T01:56:40.344Z,21.27
2022-12-09T01:59:11.137Z,23.30
2022-12-09T02:01:41.000Z,20.05
2022-12-09T02:04:07.875Z,22.35
2022-12-09T02:06:41.534Z,21.75
2022-12-09T02:09:08.408Z,18.15
2022-12-09T02:11:44.137Z,18.58
2022-12-09T02:14:27.824Z,20.48
2022-12-09T02:17:16.157Z,17.98
2022-12-09T02:20:04.694Z,18.17
2022-12-09T02:22:40.331Z,18.13
2022-12-09T02:25:16.035Z,16.67
2022-12-09T02:28:11.081Z,20.38
2022-12-09T02:30:50.407Z,19.50
2022-12-09T02:33:35.219Z,16.15
2022-12-09T02:36:09.394Z,17.50
2022-12-09T02:38:39.974Z,19.35
2022-12-09T02:41:16.479Z,17.75
2022-12-09T02:43:50.304Z,17.23
2022-12-09T02:46:22.567Z,24.88
2022-12-09T02:51:24.061Z,26.55
2022-12-09T02:53:55.588Z,25.75
2022-12-09T02:56:22.783Z,20.77
2022-12-09T02:58:52.938Z,16.60
2022-12-09T03:01:26.600Z,19.02
2022-12-09T03:03:54.623Z,16.98
2022-12-09T03:06:30.970Z,15.40
2022-12-09T03:09:09.810Z,13.80
2022-12-09T03:11:38.006Z,13.90
2022-12-09T03:14:19.542Z,14.10
2022-12-09T03:17:24.981Z,13.85
2022-12-09T03:20:08.472Z,17.48
2022-12-09T03:22:37.499Z,12.95
2022-12-09T03:25:14.729Z,15.57
2022-12-09T03:28:00.549Z,14.15
2022-12-09T03:30:27.408Z,12.10
2022-12-09T03:32:55.799Z,12.93
2022-12-09T03:35:26.723Z,13.68
2022-12-09T03:37:53.929Z,12.25
2022-12-09T03:40:25.824Z,16.50
2022-12-09T03:45:27.900Z,13.60
2022-12-09T03:47:54.933Z,13.35
2022-12-09T03:50:25.170Z,13.52
2022-12-09T03:52:59.342Z,15.57
2022-12-09T03:55:31.721Z,16.13
2022-12-09T03:58:01.417Z,13.73
2022-12-09T04:00:31.303Z,13.95
2022-12-09T04:02:57.870Z,13.57
2022-12-09T04:05:24.526Z,14.10
2022-12-09T04:07:51.164Z,15.10
2022-12-09T04:10:18.032Z,12.48
2022-12-09T04:12:44.611Z,13.80
2022-12-09T04:15:14.497Z,16.17
2022-12-09T04:17:41.704Z,14.52
2022-12-09T04:20:09.308Z,15.10
2022-12-09T04:22:36.346Z,13.98
2022-12-09T04:25:03.565Z,13.43
2022-12-09T04:27:30.142Z,14.20
2022-12-09T04:29:56.900Z,13.48
2022-12-09T04:32:23.833Z,11.98
2022-12-09T04:34:50.729Z,15.40
2022-12-09T04:37:26.808Z,14.30
2022-12-09T04:39:53.523Z,14.35
2022-12-09T04:42:20.082Z,14.45
2022-12-09T04:44:46.594Z,14.40
2022-12-09T04:47:16.125Z,13.88
2022-12-09T04:49:42.891Z,15.23
2022-12-09T04:52:09.584Z,13.23
2022-12-09T04:54:39.816Z,13.10
2022-12-09T04:57:06.658Z,13.10
2022-12-09T04:59:33.654Z,14.88
2022-12-09T05:02:03.162Z,13.88
2022-12-09T05:04:30.307Z,13.27
2022-12-09T05:06:57.185Z,13.27
2022-12-09T05:09:23.961Z,14.02
2022-12-09T05:11:52.427Z,14.50
2022-12-09T05:14:19.225Z,14.38
2022-12-09T05:16:46.109Z,15.88
2022-12-09T05:19:12.961Z,15.25
2022-12-09T05:21:39.972Z,13.93
2022-12-09T05:24:09.421Z,12.88
2022-12-09T05:26:36.233Z,12.90
2022-12-09T05:29:03.072Z,14.43
2022-12-09T05:31:33.441Z,13.27
2022-12-09T05:34:00.508Z,16.13
2022-12-09T05:36:30.418Z,16.23
2022-12-09T05:38:57.364Z,14.40
2022-12-09T05:41:24.583Z,15.55
2022-12-09T05:43:52.657Z,13.90
2022-12-09T05:46:19.996Z,14.18
2022-12-09T05:48:46.808Z,15.85
2022-12-09T05:51:31.817Z,13.85
2022-12-09T05:54:01.939Z,14.00
2022-12-09T05:56:29.165Z,13.27
2022-12-09T05:58:56.522Z,14.65
2022-12-09T06:01:24.967Z,15.95
2022-12-09T06:03:53.531Z,16.85
2022-12-09T06:06:34.300Z,14.32
2022-12-09T06:09:02.256Z,13.70
2022-12-09T06:11:29.564Z,14.35
2022-12-09T06:13:56.877Z,15.50
2022-12-09T06:16:24.251Z,15.73
2022-12-09T06:18:51.662Z,13.05
2022-12-09T06:21:23.697Z,12.73
2022-12-09T06:23:53.650Z,16.73
2022-12-09T06:26:30.690Z,15.23
2022-12-09T06:28:58.455Z,18.45
2022-12-09T06:31:26.852Z,15.18
2022-12-09T06:33:57.136Z,18.88
2022-12-09T06:36:26.192Z,16.30
2022-12-09T06:38:53.381Z,16.25
2022-12-09T06:41:26.220Z,15.18
2022-12-09T06:43:53.286Z,15.77
2022-12-09T06:46:25.035Z,15.77
2022-12-09T06:48:53.712Z,18.67
2022-12-09T06:51:21.555Z,18.40
2022-12-09T06:53:48.352Z,15.23
2022-12-09T06:56:15.723Z,16.65
2022-12-09T06:58:43.887Z,16.92
2022-12-09T07:01:22.652Z,14.38
2022-12-09T07:03:54.675Z,15.73
2022-12-09T07:06:35.410Z,16.38
2022-12-09T07:09:05.539Z,16.17
2022-12-09T07:11:32.774Z,15.27
2022-12-09T07:14:00.440Z,15.85
2022-12-09T07:16:27.629Z,17.45
2022-12-09T07:18:55.474Z,17.45
2022-12-09T07:21:26.318Z,17.63
2022-12-09T07:23:53.342Z,20.73
2022-12-09T07:26:22.317Z,18.92
2022-12-09T07:28:50.535Z,20.25
2022-12-09T07:31:28.562Z,18.92
2022-12-09T07:33:57.679Z,17.05
2022-12-09T07:36:27.173Z,20.10
2022-12-09T07:39:02.566Z,15.35
2022-12-09T07:41:29.693Z,15.35
2022-12-09T07:43:57.220Z,17.45
2022-12-09T07:46:27.646Z,19.02
2022-12-09T07:48:55.317Z,18.77
2022-12-09T07:51:24.359Z,19.65
2022-12-09T07:53:51.694Z,23.33
2022-12-09T07:56:19.439Z,26.73
2022-12-09T07:58:47.856Z,24.52
2022-12-09T08:01:26.927Z,26.15
2022-12-09T08:03:54.438Z,29.13
2022-12-09T08:06:23.678Z,30.35
2022-12-09T08:08:51.097Z,25.60
2022-12-09T08:11:21.579Z,27.02
2022-12-09T08:13:48.420Z,25.13
2022-12-09T08:16:16.924Z,24.17
2022-12-09T08:18:44.746Z,27.48
2022-12-09T08:21:14.885Z,24.30
2022-12-09T08:23:41.889Z,22.98
2022-12-09T08:26:11.225Z,28.38
2022-12-09T08:28:37.968Z,23.73
2022-12-09T08:31:10.328Z,27.77
2022-12-09T08:33:38.232Z,60.50
2022-12-09T08:36:12.381Z,28.33
2022-12-09T08:38:39.422Z,29.40
2022-12-09T08:41:11.814Z,38.65
2022-12-09T08:43:39.390Z,47.60
2022-12-09T08:46:07.088Z,38.65
2022-12-09T08:48:37.244Z,35.22
2022-12-09T08:51:09.142Z,34.20
2022-12-09T08:53:35.779Z,34.13
2022-12-09T08:56:13.129Z,32.78
2022-12-09T08:58:44.655Z,28.15
2022-12-09T09:01:20.279Z,21.93
2022-12-09T09:03:48.125Z,25.02
2022-12-09T09:06:19.131Z,22.40
2022-12-09T09:08:46.985Z,19.20
2022-12-09T09:11:16.922Z,21.58
2022-12-09T09:13:45.291Z,15.18
2022-12-09T09:16:15.137Z,18.55
2022-12-09T09:18:42.815Z,17.35
2022-12-09T09:21:11.198Z,16.65
2022-12-09T09:23:38.159Z,17.02
2022-12-09T09:26:05.596Z,18.90
2022-12-09T09:28:32.691Z,16.63
2022-12-09T09:31:00.967Z,17.30
2022-12-09T09:33:28.929Z,15.70
2022-12-09T09:36:08.316Z,18.05
2022-12-09T09:38:37.729Z,16.75
2022-12-09T09:41:19.493Z,16.65
2022-12-09T09:43:46.501Z,19.50
2022-12-09T09:46:20.893Z,16.15
2022-12-09T09:48:48.647Z,15.20
2022-12-09T09:51:19.681Z,15.45
2022-12-09T09:53:54.053Z,13.13
2022-12-09T09:56:52.455Z,15.38
2022-12-09T09:59:32.625Z,10.20
2022-12-09T10:02:13.044Z,11.32
2022-12-09T10:05:09.542Z,9.10
2022-12-09T10:07:36.717Z,8.68
2022-12-09T10:10:44.671Z,9.43
2022-12-09T10:13:20.135Z,7.43
2022-12-09T10:16:16.619Z,7.60
2022-12-09T10:19:04.223Z,5.90
2022-12-09T10:21:39.495Z,6.22
2022-12-09T10:24:27.722Z,7.57
2022-12-09T10:27:30.571Z,6.35
2022-12-09T10:30:09.000Z,4.75
2022-12-09T10:32:40.293Z,6.28
2022-12-09T10:35:25.587Z,5.95
2022-12-09T10:37:54.268Z,6.15
2022-12-09T10:40:32.881Z,5.50
2022-12-09T10:43:19.197Z,6.78
2022-12-09T10:46:16.667Z,5.22
2022-12-09T10:48:44.779Z,5.95
2022-12-09T10:51:34.768Z,5.53
2022-12-09T10:54:10.587Z,7.18
2022-12-09T10:56:43.193Z,4.22
2022-12-09T10:59:27.981Z,5.43
2022-12-09T11:02:19.517Z,6.10
2022-12-09T11:04:48.300Z,6.78
2022-12-09T11:07:18.249Z,5.80
2022-12-09T11:09:48.134Z,7.25
2022-12-09T11:12:38.204Z,4.40
2022-12-09T11:15:27.208Z,4.18
2022-12-09T11:18:07.802Z,3.53
2022-12-09T11:20:36.497Z,3.88
2022-12-09T11:23:15.276Z,3.65
2022-12-09T11:25:53.169Z,4.57
2022-12-09T11:28:40.286Z,4.78
2022-12-09T11:31:30.331Z,3.80
2022-12-09T11:34:13.544Z,4.63
2022-12-09T11:36:46.626Z,7.93
2022-12-09T11:39:31.061Z,6.15
2022-12-09T11:42:18.606Z,6.78
2022-12-09T11:45:02.446Z,4.93
2022-12-09T11:48:22.609Z,5.40
2022-12-09T11:50:32.372Z,5.18
2022-12-09T11:53:11.084Z,6.05
2022-12-09T11:55:46.985Z,7.18
2022-12-09T11:58:18.137Z,6.55
2022-12-09T12:01:25.890Z,6.63
2022-12-09T12:04:00.599Z,9.10
2022-12-09T12:06:42.194Z,6.30
2022-12-09T12:09:32.633Z,7.85
2022-12-09T12:12:32.095Z,10.13
2022-12-09T12:15:03.522Z,10.93
2022-12-09T12:17:36.583Z,13.00
2022-12-09T12:20:05.140Z,9.15
2022-12-09T12:22:54.709Z,9.82
2022-12-09T12:25:38.382Z,13.93
2022-12-09T12:28:29.271Z,11.10
2022-12-09T12:31:32.959Z,8.65
2022-12-09T12:34:24.474Z,10.40
2022-12-09T12:39:44.873Z,10.52
2022-12-09T12:43:02.410Z,15.30
2022-12-09T12:46:00.192Z,20.17
2022-12-09T12:49:03.277Z,39.47
2022-12-09T12:51:51.055Z,94.65
2022-12-09T12:54:29.606Z,38.85
2022-12-09T12:57:22.382Z,598.15
2022-12-09T13:00:05.621Z,289.88
2022-12-09T13:03:00.018Z,321.33
2022-12-09T13:05:38.269Z,290.05
2022-12-09T13:08:29.567Z,189.63
2022-12-09T13:11:00.864Z,91.87
2022-12-09T13:13:33.560Z,103.88
2022-12-09T13:16:31.225Z,319.08
2022-12-09T13:19:15.195Z,83.28
2022-12-09T13:21:43.645Z,155.02
2022-12-09T13:24:28.358Z,67.63
2022-12-09T13:27:05.743Z,121.30
2022-12-09T13:29:36.915Z,124.75
2022-12-09T13:32:22.019Z,151.70
2022-12-09T13:34:55.501Z,115.30
2022-12-09T13:37:47.759Z,152.15
2022-12-09T13:42:58.807Z,55.50
2022-12-09T13:45:46.112Z,56.75
2022-12-09T13:48:16.917Z,74.85
2022-12-09T13:50:57.391Z,90.45
2022-12-09T13:53:34.395Z,70.60
2022-12-09T13:56:18.007Z,214.48
2022-12-09T13:58:56.563Z,389.10
2022-12-09T14:01:37.412Z,74.03
2022-12-09T14:04:06.530Z,205.23
2022-12-09T14:06:45.398Z,67.57
2022-12-09T14:09:30.421Z,148.38
2022-12-09T14:12:00.389Z,190.57
2022-12-09T14:14:26.824Z,225.32
2022-12-09T14:17:24.989Z,231.13
2022-12-09T14:19:56.410Z,83.90
2022-12-09T14:22:22.921Z,420.83
2022-12-09T14:24:52.183Z,182.02
2022-12-09T14:27:22.537Z,278.95
2022-12-09T14:29:56.979Z,96.00
2022-12-09T14:32:34.299Z,103.68
2022-12-09T14:35:39.039Z,52.88
2022-12-09T14:38:28.597Z,145.00
2022-12-09T14:41:05.392Z,153.48
2022-12-09T14:44:00.897Z,447.55
2022-12-09T14:46:36.559Z,72.30
2022-12-09T14:49:15.599Z,66.80
2022-12-09T14:51:57.714Z,96.63
2022-12-09T14:54:29.166Z,84.40
2022-12-09T14:56:59.153Z,81.35
2022-12-09T14:59:28.286Z,67.97
2022-12-09T15:02:04.264Z,90.35
2022-12-09T15:04:43.175Z,66.63
2022-12-09T15:07:15.760Z,91.82
2022-12-09T15:09:53.121Z,212.20
2022-12-09T15:12:24.999Z,57.63
2022-12-09T15:17:30.711Z,72.82
2022-12-09T15:20:01.289Z,64.57
2022-12-09T15:22:31.553Z,84.78
2022-12-09T15:24:58.245Z,69.28
2022-12-09T15:27:27.319Z,72.63
2022-12-09T15:29:54.758Z,73.50
2022-12-09T15:32:30.462Z,105.95
2022-12-09T15:35:21.904Z,58.45
2022-12-09T15:37:51.153Z,80.47
2022-12-09T15:40:22.070Z,59.65
2022-12-09T15:42:54.303Z,65.73
2022-12-09T15:45:24.390Z,64.20
2022-12-09T15:48:20.879Z,54.75
2022-12-09T15:51:02.003Z,49.72
2022-12-09T15:53:36.188Z,64.43
2022-12-09T15:56:17.706Z,73.22
2022-12-09T15:58:54.029Z,153.27
2022-12-09T16:01:25.437Z,167.40
2022-12-09T16:03:56.565Z,82.57
2022-12-09T16:06:35.237Z,57.60
2022-12-09T16:09:03.140Z,72.65
2022-12-09T16:11:51.044Z,67.60
2022-12-09T16:14:18.927Z,74.13
2022-12-09T16:16:58.234Z,84.25
2022-12-09T16:19:29.976Z,66.13
2022-12-09T16:22:22.934Z,86.68
2022-12-09T16:25:14.064Z,66.30
2022-12-09T16:27:51.738Z,113.78
2022-12-09T16:30:25.038Z,75.57
2022-12-09T16:32:54.249Z,153.77
2022-12-09T16:35:24.887Z,71.53
2022-12-09T16:38:00.833Z,72.07
2022-12-09T16:40:31.829Z,122.28
2022-12-09T16:43:23.949Z,98.50
2022-12-09T16:48:31.289Z,126.18
2022-12-09T16:51:11.427Z,137.90
2022-12-09T16:53:49.937Z,171.75
2022-12-09T16:56:24.737Z,156.65
2022-12-09T16:58:52.270Z,90.03
2022-12-09T17:01:21.154Z,179.43
2022-12-09T17:03:53.305Z,128.63
2022-12-09T17:06:20.817Z,92.40
2022-12-09T17:08:50.953Z,78.40
2022-12-09T17:11:18.832Z,81.22
2022-12-09T17:13:48.707Z,76.88
2022-12-09T17:16:15.857Z,81.68
2022-12-09T17:18:42.447Z,95.97
2022-12-09T17:21:15.856Z,89.65
2022-12-09T17:23:43.145Z,95.50
2022-12-09T17:26:13.665Z,102.63
2022-12-09T17:28:41.271Z,101.95
2022-12-09T17:31:13.292Z,103.55
2022-12-09T17:33:39.806Z,104.88
2022-12-09T17:36:07.482Z,116.50
2022-12-09T17:38:37.484Z,315.77
2022-12-09T17:41:12.138Z,109.85
2022-12-09T17:43:46.436Z,142.90
2022-12-09T17:46:13.617Z,212.68
2022-12-09T17:48:43.597Z,402.00
2022-12-09T17:51:20.668Z,267.05
2022-12-09T17:53:48.206Z,207.02
2022-12-09T17:56:17.583Z,331.17
2022-12-09T17:58:44.565Z,195.95
2022-12-09T18:01:16.231Z,160.77
2022-12-09T18:04:01.643Z,143.48
2022-12-09T18:06:34.508Z,283.55
2022-12-09T18:09:03.187Z,243.35
2022-12-09T18:11:38.883Z,205.25
2022-12-09T18:14:07.903Z,161.20
2022-12-09T18:16:34.508Z,157.95
2022-12-09T18:19:03.650Z,229.10
2022-12-09T18:21:30.425Z,358.92
2022-12-09T18:23:57.027Z,165.85
2022-12-09T18:26:29.928Z,170.43
2022-12-09T18:29:05.364Z,242.82
2022-12-09T18:31:35.630Z,395.08
2022-12-09T18:34:05.113Z,131.25
2022-12-09T18:36:31.688Z,238.77
2022-12-09T18:38:59.296Z,267.52
2022-12-09T18:41:29.167Z,255.85
2022-12-09T18:44:06.079Z,178.52
2022-12-09T18:46:37.782Z,222.20
2022-12-09T18:49:13.256Z,288.10
2022-12-09T18:51:45.319Z,577.38
2022-12-09T18:54:32.351Z,566.30
2022-12-09T18:57:01.818Z,405.45
2022-12-09T18:59:30.363Z,573.75
2022-12-09T19:01:57.345Z,337.40
2022-12-09T19:04:27.514Z,470.05
2022-12-09T19:06:56.634Z,634.47
2022-12-09T19:09:26.537Z,517.25
2022-12-09T19:11:53.543Z,385.95
2022-12-09T19:14:29.181Z,419.48
2022-12-09T19:16:55.761Z,169.93
2022-12-09T19:19:24.624Z,961.55
2022-12-09T19:21:51.890Z,712.97
2022-12-09T19:24:33.257Z,319.60
2022-12-09T19:27:02.215Z,250.63
2022-12-09T19:29:28.731Z,349.38
2022-12-09T19:31:57.183Z,285.52
2022-12-09T19:34:26.289Z,473.65
2022-12-09T19:36:55.098Z,323.10
2022-12-09T19:39:23.751Z,1233.35
2022-12-09T19:41:51.352Z,316.48
2022-12-09T19:44:44.320Z,267.38
2022-12-09T19:47:13.884Z,465.75
2022-12-09T19:49:42.135Z,223.63
2022-12-09T19:52:08.636Z,582.95
2022-12-09T19:54:35.131Z,1056.18
2022-12-09T19:57:01.711Z,296.33
2022-12-09T19:59:29.037Z,204.65
2022-12-09T20:01:58.754Z,993.15
2022-12-09T20:04:48.223Z,584.65
2022-12-09T20:07:13.014Z,546.25
2022-12-09T20:09:39.846Z,866.08
2022-12-09T20:12:14.894Z,300.52
2022-12-09T20:14:42.026Z,595.75
2022-12-09T20:17:08.570Z,727.42
2022-12-09T20:19:36.682Z,988.30
2022-12-09T20:22:04.043Z,454.92
2022-12-09T20:24:34.231Z,970.20
2022-12-09T20:27:01.083Z,653.30
2022-12-09T20:29:36.929Z,419.92
2022-12-09T20:32:04.693Z,547.88
2022-12-09T20:34:31.312Z,958.45
2022-12-09T20:36:57.853Z,532.70
2022-12-09T20:39:27.569Z,614.70
2022-12-09T20:41:54.550Z,971.30
2022-12-09T20:44:21.068Z,1165.93
2022-12-09T20:46:55.513Z,729.05
2022-12-09T20:49:26.414Z,374.33
2022-12-09T20:51:54.081Z,743.25
2022-12-09T20:54:20.970Z,777.17
2022-12-09T20:56:47.870Z,834.40
2022-12-09T20:59:14.349Z,874.20
2022-12-09T21:01:44.539Z,394.77
2022-12-09T21:04:11.012Z,866.83
2022-12-09T21:06:39.598Z,378.17
2022-12-09T21:09:12.343Z,760.92
2022-12-09T21:11:40.099Z,333.33
2022-12-09T21:14:07.142Z,420.42
2022-12-09T21:16:37.468Z,427.38
2022-12-09T21:19:10.491Z,650.60
2022-12-09T21:21:41.165Z,279.58
2022-12-09T21:24:10.713Z,332.08
2022-12-09T21:26:37.313Z,1192.07
2022-12-09T21:29:04.069Z,675.20
2022-12-09T21:31:34.245Z,475.00
2022-12-09T21:34:03.532Z,728.90
2022-12-09T21:36:38.214Z,653.45
2022-12-09T21:39:05.887Z,313.83
2022-12-09T21:41:34.475Z,620.53
2022-12-09T21:44:02.154Z,272.60
2022-12-09T21:46:31.507Z,391.65
2022-12-09T21:49:03.689Z,491.27
2022-12-09T21:51:31.738Z,504.90
2022-12-09T21:53:58.294Z,1131.82
2022-12-09T21:56:27.471Z,531.50
2022-12-09T21:58:59.044Z,365.30
2022-12-09T22:01:34.262Z,782.47
2022-12-09T22:04:02.697Z,899.28
2022-12-09T22:06:29.775Z,987.92
2022-12-09T22:08:59.645Z,214.88
2022-12-09T22:11:28.900Z,524.38
2022-12-09T22:14:00.959Z,321.30
2022-12-09T22:16:33.941Z,807.30
2022-12-09T22:19:02.580Z,336.17
2022-12-09T22:21:31.138Z,441.90
2022-12-09T22:24:00.399Z,225.15
2022-12-09T22:26:30.646Z,204.35
2022-12-09T22:29:02.955Z,368.30
2022-12-09T22:31:32.281Z,582.47
2022-12-09T22:34:02.470Z,253.25
2022-12-09T22:36:35.760Z,195.57
2022-12-09T22:39:02.788Z,325.40
2022-12-09T22:41:29.875Z,145.52
2022-12-09T22:43:59.742Z,390.55
2022-12-09T22:46:29.523Z,115.80
2022-12-09T22:49:06.505Z,122.57
2022-12-09T22:51:38.696Z,229.60
2022-12-09T22:54:11.655Z,137.10
2022-12-09T22:56:40.750Z,142.95
2022-12-09T22:59:13.259Z,253.65
2022-12-09T23:01:49.092Z,199.02
2022-12-09T23:04:17.857Z,175.75
2022-12-09T23:06:50.047Z,732.83
2022-12-09T23:09:20.130Z,125.75
2022-12-09T23:11:47.227Z,131.57
2022-12-09T23:14:14.502Z,180.80
2022-12-09T23:16:41.313Z,149.68
2022-12-09T23:19:07.779Z,141.85
2022-12-09T23:21:39.142Z,323.05
2022-12-09T23:24:09.800Z,164.05
2022-12-09T23:26:39.352Z,190.95
2022-12-09T23:29:12.913Z,108.85
2022-12-09T23:31:41.522Z,113.72
2022-12-09T23:34:11.239Z,96.50
2022-12-09T23:36:40.310Z,123.60
2022-12-09T23:39:11.049Z,131.07
2022-12-09T23:41:42.027Z,143.75
2022-12-09T23:44:16.791Z,282.37
2022-12-09T23:46:44.173Z,187.95
2022-12-09T23:49:10.754Z,184.57
2022-12-09T23:51:40.499Z,129.98
2022-12-09T23:54:08.472Z,213.77
2022-12-09T23:56:38.908Z,107.40
2022-12-09T23:59:08.983Z,114.25
